createdAt,value
2024-03-31T00:02:18.246Z,8.50
2024-03-31T00:07:21.603Z,8.30
2024-03-31T00:12:25.210Z,7.10
2024-03-31T00:17:30.646Z,8.00
2024-03-31T00:22:34.973Z,8.90
2024-03-31T00:27:38.144Z,8.80
2024-03-31T00:32:41.381Z,7.90
2024-03-31T00:37:44.426Z,7.60
2024-03-31T00:42:47.578Z,8.70
2024-03-31T00:47:51.217Z,8.10
2024-03-31T00:52:54.749Z,7.50
2024-03-31T00:57:59.252Z,8.40
2024-03-31T01:03:02.912Z,10.10
2024-03-31T01:08:06.933Z,7.20
2024-03-31T01:13:10.682Z,7.20
2024-03-31T01:18:14.283Z,7.10
2024-03-31T01:23:21.409Z,8.50
2024-03-31T01:28:24.916Z,7.70
2024-03-31T01:33:29.433Z,6.70
2024-03-31T01:38:37.765Z,7.30
2024-03-31T01:43:48.498Z,7.40
2024-03-31T01:48:52.022Z,7.70
2024-03-31T01:53:55.020Z,7.00
2024-03-31T01:59:01.218Z,6.90
2024-03-31T02:04:04.948Z,8.60
2024-03-31T02:09:08.042Z,7.30
2024-03-31T02:14:11.338Z,7.00
2024-03-31T02:19:14.492Z,8.00
2024-03-31T02:24:17.867Z,8.60
2024-03-31T02:29:21.161Z,8.70
2024-03-31T02:34:24.390Z,6.70
2024-03-31T02:39:27.570Z,7.50
2024-03-31T02:44:30.904Z,6.50
2024-03-31T02:49:34.321Z,6.50
2024-03-31T02:54:37.538Z,7.70
2024-03-31T02:59:40.922Z,7.30
2024-03-31T03:04:44.229Z,8.40
2024-03-31T03:09:47.812Z,9.90
2024-03-31T03:14:55.252Z,6.40
2024-03-31T03:19:58.778Z,7.10
2024-03-31T03:25:02.454Z,6.50
2024-03-31T03:30:06.787Z,7.20
2024-03-31T03:35:09.938Z,7.70
2024-03-31T03:40:14.141Z,7.20
2024-03-31T03:45:17.475Z,7.90
2024-03-31T03:50:20.779Z,7.30
2024-03-31T03:55:24.023Z,6.60
2024-03-31T04:00:27.587Z,6.40
2024-03-31T04:05:31.016Z,6.60
2024-03-31T04:10:40.568Z,6.00
2024-03-31T04:15:44.305Z,7.50
2024-03-31T04:20:47.606Z,6.20
2024-03-31T04:25:50.862Z,6.20
2024-03-31T04:30:54.070Z,6.60
2024-03-31T04:36:00.050Z,8.50
2024-03-31T04:41:05.187Z,7.20
2024-03-31T04:46:09.962Z,7.50
2024-03-31T04:51:13.332Z,6.60
2024-03-31T04:56:16.676Z,6.50
2024-03-31T05:01:19.943Z,6.50
2024-03-31T05:06:23.651Z,5.90
2024-03-31T05:11:26.631Z,7.10
2024-03-31T05:16:29.912Z,6.30
2024-03-31T05:21:35.701Z,6.00
2024-03-31T05:26:40.679Z,6.20
2024-03-31T05:31:44.086Z,7.50
2024-03-31T05:36:49.575Z,6.50
2024-03-31T05:41:52.756Z,7.90
2024-03-31T05:46:55.971Z,24.60
2024-03-31T05:51:59.234Z,17.80
2024-03-31T05:57:03.876Z,10.30
2024-03-31T06:02:07.675Z,7.60
2024-03-31T06:07:11.508Z,7.60
2024-03-31T06:12:14.713Z,5.60
2024-03-31T06:17:19.939Z,6.20
2024-03-31T06:22:23.281Z,5.70
2024-03-31T06:27:26.445Z,6.20
2024-03-31T06:32:30.538Z,6.60
2024-03-31T06:37:34.015Z,7.10
2024-03-31T06:42:37.655Z,8.60
2024-03-31T06:47:41.247Z,9.50
2024-03-31T06:52:44.583Z,7.80
2024-03-31T06:57:47.879Z,13.90
2024-03-31T07:02:51.457Z,13.40
2024-03-31T07:07:55.333Z,33.50
2024-03-31T07:13:00.174Z,6.30
2024-03-31T07:18:11.241Z,6.80
2024-03-31T07:23:15.494Z,6.20
2024-03-31T07:28:18.774Z,6.30
2024-03-31T07:33:22.231Z,6.40
2024-03-31T07:38:26.599Z,5.80
2024-03-31T07:43:30.783Z,5.80
2024-03-31T07:48:34.670Z,5.60
2024-03-31T07:53:38.631Z,6.40
2024-03-31T07:58:47.874Z,6.10
2024-03-31T08:03:54.397Z,6.00
2024-03-31T08:08:58.829Z,6.50
2024-03-31T08:14:07.640Z,5.50
2024-03-31T08:19:12.567Z,6.80
2024-03-31T08:24:19.506Z,5.10
2024-03-31T08:29:23.664Z,6.30
2024-03-31T08:34:31.700Z,6.00
2024-03-31T08:39:50.593Z,5.00
2024-03-31T09:41:40.962Z,6.50
2024-03-31T09:46:45.597Z,6.00
2024-03-31T09:51:50.388Z,5.90
2024-03-31T09:57:04.100Z,5.60
2024-03-31T10:02:09.254Z,5.60
2024-03-31T10:07:11.906Z,5.90
2024-03-31T10:12:16.973Z,5.70
2024-03-31T10:17:20.213Z,5.50
2024-03-31T10:22:23.798Z,5.60
2024-03-31T10:27:27.418Z,5.60
2024-03-31T10:32:31.208Z,5.50
2024-03-31T10:37:37.824Z,4.30
2024-03-31T10:42:42.152Z,5.90
2024-03-31T10:47:45.240Z,5.10
2024-03-31T10:52:48.002Z,4.90
2024-03-31T10:57:59.908Z,4.40
2024-03-31T11:08:12.446Z,4.00
2024-03-31T11:13:16.610Z,4.80
2024-03-31T11:18:18.978Z,4.30
2024-03-31T11:23:22.400Z,4.30
2024-03-31T11:28:24.597Z,4.70
2024-03-31T11:33:28.305Z,4.30
2024-03-31T11:38:31.426Z,4.00
2024-03-31T11:43:34.267Z,3.70
2024-03-31T11:48:36.710Z,4.00
2024-03-31T11:53:39.391Z,4.30
2024-03-31T11:58:41.492Z,4.50
2024-03-31T12:03:43.656Z,3.80
2024-03-31T12:08:47.721Z,3.90
2024-03-31T12:13:51.389Z,4.10
2024-03-31T12:18:53.822Z,3.90
2024-03-31T12:24:00.552Z,4.30
2024-03-31T12:29:05.091Z,3.90
2024-03-31T12:34:08.055Z,3.80
2024-03-31T12:39:12.404Z,4.10
2024-03-31T12:44:17.007Z,4.20
2024-03-31T13:25:37.737Z,4.20
2024-03-31T13:30:45.794Z,3.80
2024-03-31T13:35:50.020Z,3.40
2024-03-31T13:40:53.643Z,4.00
2024-03-31T13:45:57.431Z,3.90
2024-03-31T13:51:01.647Z,5.10
2024-03-31T13:56:05.614Z,3.30
2024-03-31T14:01:09.441Z,3.60
2024-03-31T14:06:13.055Z,3.90
2024-03-31T14:11:17.217Z,4.00
2024-03-31T14:16:20.829Z,3.40
2024-03-31T14:21:27.756Z,3.30
2024-03-31T14:26:31.325Z,4.00
2024-03-31T14:31:35.665Z,3.60
2024-03-31T14:36:39.050Z,7.10
2024-03-31T14:41:42.493Z,3.80
2024-03-31T14:46:45.778Z,3.60
2024-03-31T14:51:49.233Z,3.60
2024-03-31T14:56:53.522Z,4.00
2024-03-31T15:01:56.961Z,4.90
2024-03-31T15:07:00.643Z,4.30
2024-03-31T15:12:06.074Z,4.70
2024-03-31T15:17:09.528Z,4.30
2024-03-31T15:22:14.448Z,4.90
2024-03-31T15:27:26.410Z,3.80
2024-03-31T15:32:35.653Z,4.10
2024-03-31T15:37:38.938Z,5.40
2024-03-31T15:42:42.781Z,4.20
2024-03-31T15:47:46.377Z,3.80
2024-03-31T15:52:50.061Z,5.00
2024-03-31T15:57:53.220Z,4.50
2024-03-31T16:02:57.339Z,3.80
2024-03-31T16:08:03.857Z,4.70
2024-03-31T16:13:07.487Z,4.30
2024-03-31T16:18:10.694Z,4.40
2024-03-31T16:23:14.105Z,3.90
2024-03-31T16:28:17.432Z,4.90
2024-03-31T16:33:22.406Z,4.20
2024-03-31T16:38:25.856Z,4.10
2024-03-31T16:43:30.279Z,4.20
2024-03-31T16:48:33.803Z,4.50
2024-03-31T16:53:37.066Z,6.20
2024-03-31T16:58:42.262Z,9.60
2024-03-31T17:03:47.626Z,14.00
2024-03-31T17:08:50.850Z,14.70
2024-03-31T17:13:56.756Z,16.30
2024-03-31T17:19:01.458Z,14.20
2024-03-31T17:24:05.293Z,23.20
2024-03-31T17:29:36.259Z,19.80
2024-03-31T17:34:46.765Z,16.00
2024-03-31T17:40:08.585Z,18.20
2024-03-31T17:45:19.958Z,20.90
2024-03-31T17:55:49.219Z,29.40
2024-03-31T18:00:52.736Z,18.40
2024-03-31T18:06:06.473Z,13.40
2024-03-31T18:11:11.529Z,31.50
2024-03-31T18:16:15.849Z,13.20
2024-03-31T18:21:24.330Z,11.50
2024-03-31T18:26:27.736Z,10.90
2024-03-31T18:31:42.224Z,13.70
2024-03-31T18:36:58.494Z,13.60
2024-03-31T18:42:02.091Z,11.90
2024-03-31T18:47:05.842Z,15.00
2024-03-31T18:58:14.952Z,28.60
2024-03-31T19:03:18.871Z,32.50
2024-03-31T19:08:25.901Z,71.90
2024-03-31T19:13:30.975Z,40.60
2024-03-31T19:18:35.438Z,17.00
2024-03-31T19:23:43.465Z,18.10
2024-03-31T19:28:57.752Z,19.00
2024-03-31T19:39:06.884Z,30.40
2024-03-31T19:44:13.126Z,28.30
2024-03-31T19:49:17.112Z,20.20
2024-03-31T19:54:22.414Z,18.30
2024-03-31T19:59:26.191Z,19.70
2024-03-31T20:04:29.840Z,24.30
2024-03-31T20:09:37.446Z,23.50
2024-03-31T20:14:50.200Z,38.40
2024-03-31T20:19:56.175Z,19.60
2024-03-31T20:25:03.345Z,16.40
2024-03-31T20:30:12.684Z,15.90
2024-03-31T20:35:19.321Z,51.40
2024-03-31T20:40:25.367Z,38.90
2024-03-31T20:45:30.860Z,36.90
2024-03-31T20:50:42.198Z,32.80
2024-03-31T20:56:10.957Z,33.90
2024-03-31T21:01:19.820Z,30.20
2024-03-31T21:06:49.287Z,20.50
2024-03-31T21:11:57.703Z,17.70
2024-03-31T21:17:13.493Z,17.10
2024-03-31T21:22:18.568Z,21.40
2024-03-31T21:27:25.779Z,20.10
2024-03-31T21:32:32.178Z,18.30
2024-03-31T21:37:46.308Z,17.00
2024-03-31T21:42:57.401Z,21.00
2024-03-31T21:48:04.734Z,16.50
2024-03-31T21:53:08.227Z,16.10
2024-03-31T21:58:15.853Z,15.70
2024-03-31T22:03:22.090Z,20.70
2024-03-31T22:08:32.954Z,14.30
2024-03-31T22:13:37.735Z,16.50
2024-03-31T22:18:53.451Z,12.20
2024-03-31T22:23:58.598Z,13.20
2024-03-31T22:29:01.707Z,14.20
2024-03-31T22:34:06.655Z,13.20
2024-03-31T22:39:12.509Z,13.40
2024-03-31T22:44:17.910Z,13.90
2024-03-31T22:49:25.358Z,19.60
2024-03-31T22:54:29.768Z,13.40
2024-03-31T22:59:44.501Z,15.10
2024-03-31T23:04:48.558Z,11.80
2024-03-31T23:09:52.157Z,11.70
2024-03-31T23:14:58.628Z,8.80
2024-03-31T23:20:24.884Z,8.90
2024-03-31T23:25:32.387Z,8.30
2024-03-31T23:30:46.176Z,9.20
2024-03-31T23:35:53.514Z,9.10
2024-03-31T23:40:58.402Z,8.80
2024-03-31T23:46:05.647Z,8.20
2024-03-31T23:51:11.510Z,8.80
2024-03-31T23:56:17.453Z,11.90
